Time;durP1;ratioP1;P1;durP2;ratioP2;P2;SDS_P1;SDS_P2;PMS_P1;PMS_P2;Temp;Humidity;BMP_temperature;BMP_pressure;BME280_temperature;BME280_humidity;BME280_pressure;Samples;Min_cycle;Max_cycle;Signal;HPM_P1;HPM_P2
2023/04/16 00:02:49;;;;;;;6.43;5.30;;;;;;;;;;6255491;23;20151;-84
2023/04/16 00:05:55;;;;;;;5.23;4.73;;;;;;;;;;6237798;23;20155;-84
2023/04/16 00:08:59;;;;;;;5.93;5.27;;;;;;;;;;6210253;23;20194;-84
2023/04/16 00:12:03;;;;;;;7.30;5.70;;;;;;;;;;6221243;23;20156;-84
2023/04/16 00:15:08;;;;;;;6.87;6.03;;;;;;;;;;6238288;23;20152;-84
2023/04/16 00:18:12;;;;;;;6.50;5.17;;;;;;;;;;6219048;23;20159;-84
2023/04/16 00:21:16;;;;;;;6.70;6.10;;;;;;;;;;6220449;23;20588;-84
2023/04/16 00:24:20;;;;;;;6.23;5.27;;;;;;;;;;6255749;23;20160;-84
2023/04/16 00:27:25;;;;;;;6.27;5.63;;;;;;;;;;6239556;23;20179;-81
2023/04/16 00:30:29;;;;;;;6.03;5.00;;;;;;;;;;6240240;23;20445;-81
2023/04/16 00:33:33;;;;;;;5.37;4.83;;;;;;;;;;6257100;23;20152;-81
2023/04/16 00:36:37;;;;;;;6.47;5.57;;;;;;;;;;6240261;23;20153;-81
2023/04/16 00:39:42;;;;;;;5.40;4.90;;;;;;;;;;6216580;23;20191;-81
2023/04/16 00:42:46;;;;;;;5.83;5.17;;;;;;;;;;6241018;23;20151;-81
2023/04/16 00:45:56;;;;;;;5.70;5.10;;;;;;;;;;6241424;23;20155;-81
2023/04/16 00:49:01;;;;;;;7.20;5.03;;;;;;;;;;6219454;23;20191;-81
2023/04/16 00:52:07;;;;;;;5.80;5.10;;;;;;;;;;6224739;23;20159;-81
2023/04/16 00:55:12;;;;;;;5.33;4.83;;;;;;;;;;6241179;23;20147;-81
2023/04/16 00:58:17;;;;;;;6.10;5.23;;;;;;;;;;6222853;23;20183;-81
2023/04/16 01:01:21;;;;;;;5.63;4.97;;;;;;;;;;6258885;23;20155;-81
2023/04/16 01:04:25;;;;;;;5.67;4.70;;;;;;;;;;6259040;23;20156;-81
2023/04/16 01:07:29;;;;;;;5.60;4.50;;;;;;;;;;6221649;23;20198;-81
2023/04/16 01:10:33;;;;;;;5.20;4.70;;;;;;;;;;6241338;23;20588;-81
2023/04/16 01:13:38;;;;;;;5.30;4.63;;;;;;;;;;6230990;23;20172;-81
2023/04/16 01:16:42;;;;;;;4.90;4.40;;;;;;;;;;6240864;23;20581;-81
2023/04/16 01:19:46;;;;;;;5.50;4.90;;;;;;;;;;6215967;23;20195;-83
2023/04/16 01:22:50;;;;;;;5.37;4.50;;;;;;;;;;6224649;23;20148;-82
2023/04/16 01:25:55;;;;;;;5.27;4.77;;;;;;;;;;6241586;23;20588;-82
2023/04/16 01:28:59;;;;;;;4.70;4.20;;;;;;;;;;6214197;23;20187;-81
2023/04/16 01:32:04;;;;;;;5.73;5.03;;;;;;;;;;6241939;23;20155;-82
2023/04/16 01:35:14;;;;;;;6.07;5.30;;;;;;;;;;6232324;23;20462;-83
2023/04/16 01:38:18;;;;;;;5.23;4.57;;;;;;;;;;6244161;23;20183;-83
2023/04/16 01:41:22;;;;;;;5.83;4.60;;;;;;;;;;6260382;23;20155;-83
2023/04/16 01:44:27;;;;;;;5.73;4.33;;;;;;;;;;6243343;23;20604;-82
2023/04/16 01:47:31;;;;;;;5.83;4.70;;;;;;;;;;6224335;23;20179;-83
2023/04/16 01:50:35;;;;;;;5.00;4.50;;;;;;;;;;6227838;23;20151;-81
2023/04/16 01:53:39;;;;;;;4.73;4.00;;;;;;;;;;6242732;23;20148;-81
2023/04/16 01:56:43;;;;;;;4.70;3.83;;;;;;;;;;6241420;23;20480;-84
2023/04/16 01:59:47;;;;;;;4.87;4.37;;;;;;;;;;6232833;23;20655;-82
2023/04/16 02:02:52;;;;;;;4.73;4.20;;;;;;;;;;6241042;23;20588;-82
2023/04/16 02:06:03;;;;;;;4.30;3.60;;;;;;;;;;6240567;23;20152;-82
2023/04/16 02:09:06;;;;;;;4.73;3.93;;;;;;;;;;6253462;23;20190;-82
2023/04/16 02:12:11;;;;;;;5.03;4.30;;;;;;;;;;6222896;23;20588;-82
2023/04/16 02:15:15;;;;;;;4.70;4.20;;;;;;;;;;6258580;23;20155;-83
2023/04/16 02:18:19;;;;;;;5.90;4.90;;;;;;;;;;6221124;23;20187;-82
2023/04/16 02:21:24;;;;;;;6.80;5.43;;;;;;;;;;6239724;23;20151;-83
2023/04/16 02:24:29;;;;;;;5.97;5.03;;;;;;;;;;6258311;23;20155;-83
2023/04/16 02:27:35;;;;;;;5.67;5.03;;;;;;;;;;6240592;23;20180;-83
2023/04/16 02:30:50;;;;;;;5.73;5.00;;;;;;;;;;6214731;23;20171;-83
2023/04/16 02:33:56;;;;;;;6.23;5.40;;;;;;;;;;6223128;23;20155;-83
2023/04/16 02:37:00;;;;;;;5.67;4.90;;;;;;;;;;6229947;23;20167;-82
2023/04/16 02:40:05;;;;;;;5.93;5.20;;;;;;;;;;6213875;23;20187;-83
2023/04/16 02:43:09;;;;;;;6.13;5.10;;;;;;;;;;6239899;22;20151;-83
2023/04/16 02:46:13;;;;;;;6.83;5.00;;;;;;;;;;6258882;23;20151;-83
2023/04/16 02:49:16;;;;;;;6.20;4.90;;;;;;;;;;6247915;23;20195;-83
2023/04/16 02:52:21;;;;;;;7.73;5.10;;;;;;;;;;6212671;23;20167;-83
2023/04/16 02:55:25;;;;;;;5.70;5.10;;;;;;;;;;6212392;23;20177;-83
2023/04/16 02:58:29;;;;;;;5.73;5.13;;;;;;;;;;6220337;23;20187;-83
2023/04/16 03:01:33;;;;;;;5.40;4.67;;;;;;;;;;6240060;23;20488;-83
2023/04/16 03:04:37;;;;;;;5.93;5.03;;;;;;;;;;6257926;23;20155;-83
2023/04/16 03:07:41;;;;;;;5.13;4.43;;;;;;;;;;6229523;23;20199;-83
2023/04/16 03:10:45;;;;;;;5.03;4.33;;;;;;;;;;6247507;23;20167;-83
2023/04/16 03:13:49;;;;;;;5.00;4.50;;;;;;;;;;6222743;23;20152;-83
2023/04/16 03:16:54;;;;;;;6.67;5.07;;;;;;;;;;6240033;23;20156;-83
2023/04/16 03:19:58;;;;;;;5.17;4.30;;;;;;;;;;6213744;23;20187;-83
2023/04/16 03:23:02;;;;;;;6.20;4.93;;;;;;;;;;6239961;23;20156;-83
2023/04/16 03:26:06;;;;;;;5.53;4.60;;;;;;;;;;6241307;23;20151;-83
2023/04/16 03:29:10;;;;;;;5.70;5.10;;;;;;;;;;6220344;23;20199;-83
2023/04/16 03:32:15;;;;;;;5.77;5.17;;;;;;;;;;6260098;23;20152;-83
2023/04/16 03:35:19;;;;;;;7.00;5.37;;;;;;;;;;6225167;23;20151;-83
2023/04/16 03:38:24;;;;;;;5.97;5.37;;;;;;;;;;6275339;22;20189;-83
2023/04/16 03:41:30;;;;;;;6.30;5.40;;;;;;;;;;6243222;23;20152;-83
2023/04/16 03:44:35;;;;;;;6.07;5.47;;;;;;;;;;6223316;23;20155;-83
2023/04/16 03:47:40;;;;;;;6.43;5.17;;;;;;;;;;6257291;23;20179;-81
2023/04/16 03:50:48;;;;;;;6.20;5.60;;;;;;;;;;6223029;23;20151;-81
2023/04/16 03:53:55;;;;;;;6.37;5.53;;;;;;;;;;6239619;23;20596;-82
2023/04/16 03:57:01;;;;;;;6.87;6.17;;;;;;;;;;6221921;23;20160;-84
2023/04/16 04:00:06;;;;;;;7.73;6.40;;;;;;;;;;6265205;22;20187;-82
2023/04/16 04:03:28;;;;;;;7.07;6.37;;;;;;;;;;6257058;23;20473;-82
2023/04/16 04:06:33;;;;;;;6.93;6.23;;;;;;;;;;6239133;23;20494;-82
2023/04/16 04:09:37;;;;;;;6.70;6.00;;;;;;;;;;6232551;22;20547;-73
2023/04/16 04:12:41;;;;;;;7.77;6.93;;;;;;;;;;6277233;22;20220;-74
2023/04/16 04:15:45;;;;;;;8.37;7.20;;;;;;;;;;6277248;22;20171;-74
2023/04/16 04:18:50;;;;;;;7.83;7.03;;;;;;;;;;6270213;22;20543;-74
2023/04/16 04:21:54;;;;;;;8.27;7.13;;;;;;;;;;6263818;22;20190;-74
2023/04/16 04:24:58;;;;;;;7.63;6.83;;;;;;;;;;6287800;22;20155;-74
2023/04/16 04:28:04;;;;;;;8.43;7.57;;;;;;;;;;6269933;22;20179;-74
2023/04/16 04:31:09;;;;;;;9.73;7.10;;;;;;;;;;6285725;22;20654;-74
2023/04/16 04:34:13;;;;;;;8.63;7.23;;;;;;;;;;6277779;22;20170;-74
2023/04/16 04:37:17;;;;;;;8.47;7.57;;;;;;;;;;6278025;22;20170;-74
2023/04/16 04:40:21;;;;;;;7.90;6.87;;;;;;;;;;6287935;22;20150;-74
2023/04/16 04:43:26;;;;;;;8.63;7.13;;;;;;;;;;6269699;22;20154;-74
2023/04/16 04:46:30;;;;;;;8.43;7.53;;;;;;;;;;6288875;22;20155;-74
2023/04/16 04:49:34;;;;;;;8.63;7.73;;;;;;;;;;6287386;22;20179;-74
2023/04/16 04:52:38;;;;;;;8.27;7.43;;;;;;;;;;6278899;22;20187;-73
2023/04/16 04:55:43;;;;;;;8.57;6.53;;;;;;;;;;6287139;22;20152;-73
2023/04/16 04:58:51;;;;;;;7.60;6.80;;;;;;;;;;6287169;22;20151;-74
2023/04/16 05:01:56;;;;;;;10.53;7.40;;;;;;;;;;6241928;22;20191;-74
2023/04/16 05:05:00;;;;;;;8.00;7.20;;;;;;;;;;6288706;22;20441;-74
2023/04/16 05:08:05;;;;;;;8.17;6.70;;;;;;;;;;6277874;22;20186;-74
2023/04/16 05:11:09;;;;;;;7.80;6.37;;;;;;;;;;6278487;22;20190;-74
2023/04/16 05:14:13;;;;;;;8.07;6.80;;;;;;;;;;6287266;22;20160;-74
2023/04/16 05:17:17;;;;;;;8.57;7.30;;;;;;;;;;6286887;22;20155;-74
2023/04/16 05:20:25;;;;;;;7.93;7.03;;;;;;;;;;6277127;22;20615;-74
2023/04/16 05:23:29;;;;;;;7.43;6.63;;;;;;;;;;6277541;22;20170;-74
2023/04/16 05:26:33;;;;;;;7.43;6.63;;;;;;;;;;6277080;22;20489;-74
2023/04/16 05:29:37;;;;;;;6.87;6.17;;;;;;;;;;6287400;22;20477;-73
2023/04/16 05:32:42;;;;;;;7.10;6.40;;;;;;;;;;6276310;22;20229;-73
2023/04/16 05:35:46;;;;;;;7.23;6.53;;;;;;;;;;6287738;22;20596;-73
2023/04/16 05:38:51;;;;;;;7.10;6.33;;;;;;;;;;6305231;22;20151;-74
2023/04/16 05:41:55;;;;;;;9.57;6.33;;;;;;;;;;6281678;22;20190;-73
2023/04/16 05:45:02;;;;;;;7.53;6.60;;;;;;;;;;6287941;22;20155;-74
2023/04/16 05:48:10;;;;;;;29.33;19.17;;;;;;;;;;6287939;22;20179;-74
2023/04/16 05:51:14;;;;;;;12.40;10.33;;;;;;;;;;6284299;22;20190;-73
2023/04/16 05:54:18;;;;;;;9.00;8.10;;;;;;;;;;6287757;22;20151;-74
2023/04/16 05:57:22;;;;;;;14.20;11.33;;;;;;;;;;6286301;22;20151;-74
2023/04/16 06:00:27;;;;;;;11.43;10.10;;;;;;;;;;6287325;22;20147;-73
2023/04/16 06:03:31;;;;;;;11.10;9.00;;;;;;;;;;6276445;22;20166;-74
2023/04/16 06:06:36;;;;;;;30.77;21.10;;;;;;;;;;6277298;22;20170;-74
2023/04/16 06:09:40;;;;;;;17.60;14.03;;;;;;;;;;6263796;22;20198;-74
2023/04/16 06:12:44;;;;;;;13.83;12.10;;;;;;;;;;6277482;22;20190;-74
2023/04/16 06:15:48;;;;;;;10.20;9.10;;;;;;;;;;6276465;22;20166;-74
2023/04/16 06:18:53;;;;;;;10.23;8.67;;;;;;;;;;6287133;22;20154;-73
2023/04/16 06:21:57;;;;;;;13.17;10.27;;;;;;;;;;6245006;22;20505;-74
2023/04/16 06:25:01;;;;;;;11.97;10.77;;;;;;;;;;6287840;22;20457;-74
2023/04/16 06:28:05;;;;;;;7.83;7.13;;;;;;;;;;6286246;22;20456;-74
2023/04/16 06:31:09;;;;;;;8.57;7.67;;;;;;;;;;6284798;22;20190;-74
2023/04/16 06:34:13;;;;;;;7.83;7.03;;;;;;;;;;6277104;22;20174;-74
2023/04/16 06:37:17;;;;;;;7.43;6.60;;;;;;;;;;6276109;22;20173;-74
2023/04/16 06:40:21;;;;;;;7.63;6.63;;;;;;;;;;6287285;22;20151;-73
2023/04/16 06:43:25;;;;;;;7.00;6.30;;;;;;;;;;6286711;22;20151;-73
2023/04/16 06:46:30;;;;;;;6.90;6.20;;;;;;;;;;6304333;22;20155;-74
2023/04/16 06:49:34;;;;;;;6.30;5.70;;;;;;;;;;6287524;22;20178;-74
2023/04/16 06:52:39;;;;;;;63.23;17.30;;;;;;;;;;6277469;22;20190;-73
2023/04/16 06:55:43;;;;;;;58.97;16.37;;;;;;;;;;6258300;22;20175;-73
2023/04/16 06:58:47;;;;;;;7.50;5.90;;;;;;;;;;6286031;22;20151;-73
2023/04/16 07:01:51;;;;;;;7.17;4.97;;;;;;;;;;6281600;22;20186;-74
2023/04/16 07:04:56;;;;;;;5.10;4.60;;;;;;;;;;6269118;22;20155;-73
2023/04/16 07:08:00;;;;;;;5.83;4.50;;;;;;;;;;6287264;22;20155;-74
2023/04/16 07:11:04;;;;;;;5.40;4.90;;;;;;;;;;6284255;22;20191;-73
2023/04/16 07:14:08;;;;;;;6.43;5.23;;;;;;;;;;6287996;22;20151;-73
2023/04/16 07:17:12;;;;;;;5.37;4.87;;;;;;;;;;6286737;22;20151;-73
2023/04/16 07:20:16;;;;;;;6.33;5.73;;;;;;;;;;6268874;22;20147;-74
2023/04/16 07:23:20;;;;;;;5.07;4.67;;;;;;;;;;6287186;22;20158;-74
2023/04/16 07:26:25;;;;;;;5.13;4.67;;;;;;;;;;6286996;22;20151;-73
2023/04/16 07:29:29;;;;;;;5.47;4.70;;;;;;;;;;6286140;22;20174;-73
2023/04/16 07:32:34;;;;;;;4.63;4.23;;;;;;;;;;6277028;22;20497;-74
2023/04/16 07:35:38;;;;;;;4.57;4.17;;;;;;;;;;6287176;22;20151;-73
2023/04/16 07:38:42;;;;;;;3.67;3.37;;;;;;;;;;6286527;22;20592;-73
2023/04/16 07:41:46;;;;;;;3.53;3.23;;;;;;;;;;6281199;22;20190;-73
2023/04/16 07:44:50;;;;;;;4.20;3.70;;;;;;;;;;6286914;22;20155;-74
2023/04/16 07:47:54;;;;;;;3.97;3.57;;;;;;;;;;6287953;22;20155;-74
2023/04/16 07:50:58;;;;;;;3.53;3.13;;;;;;;;;;6286627;22;20190;-74
2023/04/16 07:54:02;;;;;;;4.83;3.70;;;;;;;;;;6289291;22;20151;-73
2023/04/16 07:57:07;;;;;;;4.07;3.67;;;;;;;;;;6288826;22;20465;-73
2023/04/16 08:00:11;;;;;;;4.00;3.43;;;;;;;;;;6289479;22;20143;-74
2023/04/16 08:03:18;;;;;;;2.70;2.50;;;;;;;;;;6278341;22;20167;-73
2023/04/16 08:06:22;;;;;;;3.23;2.97;;;;;;;;;;6295175;22;20171;-73
2023/04/16 08:09:27;;;;;;;2.70;2.50;;;;;;;;;;6278474;22;20199;-74
2023/04/16 08:12:31;;;;;;;3.20;2.90;;;;;;;;;;6277712;22;20190;-74
2023/04/16 08:15:35;;;;;;;2.27;2.10;;;;;;;;;;6278478;22;20611;-73
2023/04/16 08:18:40;;;;;;;1.83;1.73;;;;;;;;;;6288599;22;20155;-73
2023/04/16 08:21:44;;;;;;;2.00;1.80;;;;;;;;;;6283487;22;20194;-74
2023/04/16 08:24:48;;;;;;;2.40;2.00;;;;;;;;;;6305522;22;20155;-74
2023/04/16 08:27:52;;;;;;;1.70;1.60;;;;;;;;;;6270239;22;20591;-74
2023/04/16 08:30:56;;;;;;;1.30;1.20;;;;;;;;;;6278489;22;20646;-74
2023/04/16 08:34:00;;;;;;;1.60;1.20;;;;;;;;;;6288556;22;20155;-75
2023/04/16 08:37:04;;;;;;;1.40;1.30;;;;;;;;;;6287379;22;20469;-75
2023/04/16 08:40:09;;;;;;;1.60;1.50;;;;;;;;;;6288809;22;20151;-74
2023/04/16 08:43:15;;;;;;;2.50;1.50;;;;;;;;;;6277996;22;20170;-75
2023/04/16 08:46:23;;;;;;;1.60;1.50;;;;;;;;;;6278636;22;20170;-75
2023/04/16 08:49:28;;;;;;;1.07;0.97;;;;;;;;;;6288622;22;20183;-75
2023/04/16 08:52:36;;;;;;;1.20;1.10;;;;;;;;;;6279410;22;20655;-74
2023/04/16 08:55:50;;;;;;;1.10;1.00;;;;;;;;;;6287242;22;20155;-74
2023/04/16 08:58:54;;;;;;;0.70;0.70;;;;;;;;;;6268866;22;20158;-74
2023/04/16 09:01:59;;;;;;;1.10;1.00;;;;;;;;;;6262988;22;20187;-74
2023/04/16 09:05:06;;;;;;;0.90;0.80;;;;;;;;;;6287401;22;20155;-75
2023/04/16 09:08:11;;;;;;;0.83;0.80;;;;;;;;;;6287179;22;20155;-74
2023/04/16 09:11:17;;;;;;;0.73;0.73;;;;;;;;;;6284199;22;20191;-74
2023/04/16 09:14:21;;;;;;;1.00;0.80;;;;;;;;;;6269782;22;20155;-74
2023/04/16 09:17:25;;;;;;;0.60;0.60;;;;;;;;;;6288374;22;20426;-74
2023/04/16 09:20:30;;;;;;;0.80;0.70;;;;;;;;;;6286870;22;20151;-74
2023/04/16 09:23:35;;;;;;;0.57;0.50;;;;;;;;;;6286828;22;20151;-75
2023/04/16 09:26:43;;;;;;;0.93;0.83;;;;;;;;;;6287312;22;20155;-74
2023/04/16 09:29:46;;;;;;;1.67;0.60;;;;;;;;;;6277514;22;20505;-74
2023/04/16 09:33:10;;;;;;;0.50;0.50;;;;;;;;;;6277927;22;20190;-75
2023/04/16 09:36:21;;;;;;;0.80;0.80;;;;;;;;;;6287997;22;20147;-74
2023/04/16 09:39:26;;;;;;;0.70;0.70;;;;;;;;;;6288142;22;20147;-74
2023/04/16 09:42:35;;;;;;;0.50;0.50;;;;;;;;;;6278017;22;20190;-75
2023/04/16 09:45:53;;;;;;;0.93;0.40;;;;;;;;;;6287006;22;20155;-75
2023/04/16 09:49:04;;;;;;;0.90;0.40;;;;;;;;;;6286387;22;20155;-75
2023/04/16 09:52:19;;;;;;;0.40;0.40;;;;;;;;;;6279905;22;20493;-75
2023/04/16 09:55:26;;;;;;;0.40;0.40;;;;;;;;;;6287698;22;20151;-75
2023/04/16 09:58:30;;;;;;;2.23;1.57;;;;;;;;;;6258510;22;20170;-75
2023/04/16 10:01:35;;;;;;;24.53;16.43;;;;;;;;;;6275989;22;20186;-74
2023/04/16 10:04:50;;;;;;;20.93;14.13;;;;;;;;;;6287754;22;20158;-75
2023/04/16 10:08:00;;;;;;;15.07;10.23;;;;;;;;;;6286100;22;20161;-75
2023/04/16 10:11:04;;;;;;;9.60;8.00;;;;;;;;;;6283980;22;20547;-75
2023/04/16 10:14:08;;;;;;;1.10;1.00;;;;;;;;;;6245833;22;20207;-72
2023/04/16 10:17:13;;;;;;;0.50;0.50;;;;;;;;;;6226519;23;20462;-74
2023/04/16 10:20:17;;;;;;;0.50;0.50;;;;;;;;;;6226112;23;20152;-74
2023/04/16 10:23:21;;;;;;;4.10;0.80;;;;;;;;;;6195019;23;20157;-72
2023/04/16 10:26:28;;;;;;;0.60;0.50;;;;;;;;;;6196309;23;20157;-72
2023/04/16 10:29:33;;;;;;;0.50;0.40;;;;;;;;;;6186334;23;20188;-73
2023/04/16 10:32:38;;;;;;;0.63;0.50;;;;;;;;;;6201971;23;20189;-73
2023/04/16 10:35:44;;;;;;;0.63;0.57;;;;;;;;;;6202180;23;20169;-73
2023/04/16 10:38:51;;;;;;;0.60;0.53;;;;;;;;;;6196172;23;20154;-74
2023/04/16 10:42:11;;;;;;;0.50;0.50;;;;;;;;;;6172340;23;20189;-73
2023/04/16 10:45:15;;;;;;;0.50;0.50;;;;;;;;;;6195192;23;20157;-74
2023/04/16 10:48:19;;;;;;;0.60;0.60;;;;;;;;;;6184888;23;20168;-73
2023/04/16 10:51:27;;;;;;;0.50;0.40;;;;;;;;;;6190659;23;20200;-72
2023/04/16 10:54:34;;;;;;;0.70;0.50;;;;;;;;;;6160694;23;20157;-73
2023/04/16 10:57:38;;;;;;;0.63;0.60;;;;;;;;;;6194590;23;20157;-72
2023/04/16 11:00:50;;;;;;;0.80;0.70;;;;;;;;;;6201829;23;20164;-73
2023/04/16 11:03:54;;;;;;;0.77;0.60;;;;;;;;;;6212533;23;20161;-74
2023/04/16 11:07:14;;;;;;;0.50;0.50;;;;;;;;;;6212231;23;20593;-74
2023/04/16 11:10:18;;;;;;;0.67;0.67;;;;;;;;;;6212142;23;20490;-74
2023/04/16 11:13:23;;;;;;;0.63;0.60;;;;;;;;;;6213574;23;20208;-72
2023/04/16 11:16:30;;;;;;;0.70;0.60;;;;;;;;;;6204362;23;20152;-74
2023/04/16 11:19:35;;;;;;;0.50;0.50;;;;;;;;;;6256919;23;20152;-74
2023/04/16 11:22:40;;;;;;;0.50;0.50;;;;;;;;;;6247385;23;20187;-74
2023/04/16 11:25:45;;;;;;;0.70;0.60;;;;;;;;;;6227564;23;20168;-72
2023/04/16 11:28:49;;;;;;;0.97;0.67;;;;;;;;;;6238236;23;20151;-74
2023/04/16 11:31:54;;;;;;;0.50;0.50;;;;;;;;;;6215216;23;20191;-74
2023/04/16 11:35:02;;;;;;;1.23;0.60;;;;;;;;;;6227759;23;20171;-74
2023/04/16 11:38:06;;;;;;;1.40;0.70;;;;;;;;;;6227688;23;20486;-74
2023/04/16 11:41:19;;;;;;;0.60;0.50;;;;;;;;;;6234930;23;20187;-72
2023/04/16 11:44:26;;;;;;;0.70;0.63;;;;;;;;;;6238212;23;20152;-74
2023/04/16 11:47:30;;;;;;;1.03;0.60;;;;;;;;;;6237949;23;20151;-74
2023/04/16 11:50:34;;;;;;;0.97;0.60;;;;;;;;;;6246189;23;20505;-74
2023/04/16 11:53:46;;;;;;;1.60;0.50;;;;;;;;;;6238369;23;20155;-74
2023/04/16 11:56:52;;;;;;;20.50;10.80;;;;;;;;;;6227706;23;20176;-73
2023/04/16 11:59:57;;;;;;;11.80;5.83;;;;;;;;;;6256391;23;20154;-74
2023/04/16 12:03:01;;;;;;;1.27;0.77;;;;;;;;;;6256550;23;20481;-74
2023/04/16 12:06:09;;;;;;;10.40;5.33;;;;;;;;;;6237907;23;20464;-74
2023/04/16 12:09:26;;;;;;;6.77;3.80;;;;;;;;;;6237734;23;20155;-73
2023/04/16 12:12:31;;;;;;;10.03;4.13;;;;;;;;;;6212023;23;20187;-74
2023/04/16 12:15:48;;;;;;;1.57;1.27;;;;;;;;;;6256616;23;20155;-74
2023/04/16 12:19:01;;;;;;;0.60;0.50;;;;;;;;;;6220726;23;20457;-73
2023/04/16 12:22:05;;;;;;;0.70;0.60;;;;;;;;;;6249454;23;20652;-74
2023/04/16 12:25:12;;;;;;;0.30;0.30;;;;;;;;;;6237196;23;20156;-74
2023/04/16 12:28:37;;;;;;;0.50;0.40;;;;;;;;;;6255743;23;20151;-74
2023/04/16 12:31:41;;;;;;;0.67;0.40;;;;;;;;;;6250323;23;20207;-73
2023/04/16 12:34:50;;;;;;;0.70;0.57;;;;;;;;;;6257765;23;20152;-74
2023/04/16 12:37:54;;;;;;;0.60;0.47;;;;;;;;;;6257845;23;20152;-73
2023/04/16 12:41:00;;;;;;;0.50;0.50;;;;;;;;;;6237530;23;20187;-73
2023/04/16 12:44:07;;;;;;;0.40;0.40;;;;;;;;;;6238701;23;20156;-74
2023/04/16 12:47:12;;;;;;;0.40;0.40;;;;;;;;;;6239356;23;20155;-74
2023/04/16 12:50:16;;;;;;;0.57;0.43;;;;;;;;;;6239161;23;20179;-74
2023/04/16 12:53:20;;;;;;;0.70;0.50;;;;;;;;;;6239400;23;20155;-74
2023/04/16 12:56:25;;;;;;;0.50;0.50;;;;;;;;;;6221687;23;20155;-75
2023/04/16 12:59:29;;;;;;;0.57;0.43;;;;;;;;;;6256688;23;20151;-75
2023/04/16 13:02:33;;;;;;;0.40;0.40;;;;;;;;;;6230372;23;20191;-73
2023/04/16 13:05:39;;;;;;;0.40;0.40;;;;;;;;;;6239109;23;20156;-74
2023/04/16 13:08:43;;;;;;;0.40;0.40;;;;;;;;;;6258341;23;20155;-72
2023/04/16 13:11:47;;;;;;;0.50;0.47;;;;;;;;;;6229057;23;20195;-74
2023/04/16 13:14:52;;;;;;;1.27;0.37;;;;;;;;;;6229159;23;20179;-75
2023/04/16 13:17:56;;;;;;;0.50;0.50;;;;;;;;;;6239523;23;20219;-71
2023/04/16 13:21:01;;;;;;;0.50;0.50;;;;;;;;;;6228614;23;20191;-72
2023/04/16 13:24:05;;;;;;;0.60;0.50;;;;;;;;;;6256729;23;20474;-73
2023/04/16 13:27:10;;;;;;;1.00;0.60;;;;;;;;;;6257286;23;20592;-71
2023/04/16 13:30:15;;;;;;;0.47;0.47;;;;;;;;;;6239215;23;20152;-72
2023/04/16 13:33:20;;;;;;;0.90;0.40;;;;;;;;;;6239309;23;20155;-72
2023/04/16 13:36:24;;;;;;;0.30;0.30;;;;;;;;;;6238848;23;20155;-71
2023/04/16 13:39:28;;;;;;;0.70;0.57;;;;;;;;;;6239167;23;20156;-73
2023/04/16 13:42:33;;;;;;;0.43;0.43;;;;;;;;;;6249146;23;20183;-73
2023/04/16 13:45:37;;;;;;;0.50;0.47;;;;;;;;;;6239134;23;20147;-74
2023/04/16 13:48:41;;;;;;;2.13;0.50;;;;;;;;;;6238911;23;20159;-74
2023/04/16 13:51:46;;;;;;;0.50;0.40;;;;;;;;;;6250996;23;20203;-72
2023/04/16 13:54:50;;;;;;;1.40;0.50;;;;;;;;;;6221777;23;20155;-74
2023/04/16 13:57:57;;;;;;;0.33;0.33;;;;;;;;;;6221902;23;20155;-72
2023/04/16 14:01:00;;;;;;;2.13;0.60;;;;;;;;;;6255161;23;20187;-73
2023/04/16 14:04:06;;;;;;;0.70;0.60;;;;;;;;;;6257530;23;20155;-75
2023/04/16 14:07:10;;;;;;;0.50;0.50;;;;;;;;;;6246959;23;20172;-74
2023/04/16 14:10:15;;;;;;;1.70;0.60;;;;;;;;;;6239570;23;20156;-73
2023/04/16 14:13:20;;;;;;;76.30;49.37;;;;;;;;;;6236838;23;20183;-74
2023/04/16 14:16:26;;;;;;;7.83;7.03;;;;;;;;;;6256709;23;20162;-73
2023/04/16 14:19:30;;;;;;;1.03;0.90;;;;;;;;;;6238711;23;20155;-73
2023/04/16 14:22:34;;;;;;;0.70;0.50;;;;;;;;;;6248453;23;20493;-73
2023/04/16 14:25:39;;;;;;;0.70;0.60;;;;;;;;;;6257298;23;20588;-73
2023/04/16 14:28:43;;;;;;;1.63;0.50;;;;;;;;;;6204036;23;20155;-72
2023/04/16 14:31:49;;;;;;;0.47;0.40;;;;;;;;;;6232799;23;20203;-73
2023/04/16 14:34:52;;;;;;;0.73;0.50;;;;;;;;;;6228708;23;20171;-73
2023/04/16 14:37:57;;;;;;;0.53;0.40;;;;;;;;;;6237961;23;20155;-73
2023/04/16 14:41:01;;;;;;;1.70;0.40;;;;;;;;;;6235736;23;20206;-73
2023/04/16 14:44:05;;;;;;;0.70;0.53;;;;;;;;;;6237902;23;20147;-73
2023/04/16 14:47:10;;;;;;;0.50;0.47;;;;;;;;;;6257000;23;20156;-73
2023/04/16 14:50:14;;;;;;;2.27;0.57;;;;;;;;;;6257271;23;20151;-74
2023/04/16 14:53:18;;;;;;;0.83;0.60;;;;;;;;;;6238131;23;20152;-73
2023/04/16 14:56:22;;;;;;;0.43;0.40;;;;;;;;;;6238303;23;20156;-73
2023/04/16 14:59:27;;;;;;;0.30;0.30;;;;;;;;;;6238192;23;20151;-73
2023/04/16 15:02:33;;;;;;;0.63;0.50;;;;;;;;;;6248010;23;20187;-73
2023/04/16 15:05:36;;;;;;;0.70;0.47;;;;;;;;;;6256826;23;20151;-74
2023/04/16 15:08:41;;;;;;;0.60;0.50;;;;;;;;;;6255972;23;20152;-74
2023/04/16 15:11:45;;;;;;;0.40;0.40;;;;;;;;;;6232731;23;20663;-75
2023/04/16 15:14:49;;;;;;;0.30;0.30;;;;;;;;;;6246114;23;20485;-73
2023/04/16 15:17:55;;;;;;;1.17;0.50;;;;;;;;;;6220445;23;20466;-74
2023/04/16 15:20:59;;;;;;;0.40;0.40;;;;;;;;;;6254230;23;20506;-74
2023/04/16 15:24:04;;;;;;;2.13;0.40;;;;;;;;;;6255890;23;20155;-74
2023/04/16 15:27:08;;;;;;;0.33;0.30;;;;;;;;;;6237755;23;20600;-74
2023/04/16 15:30:12;;;;;;;0.40;0.40;;;;;;;;;;6255213;23;20159;-75
2023/04/16 15:33:16;;;;;;;0.40;0.40;;;;;;;;;;6237789;23;20152;-75
2023/04/16 15:36:20;;;;;;;1.07;0.80;;;;;;;;;;6255196;23;20466;-74
2023/04/16 15:39:24;;;;;;;0.60;0.60;;;;;;;;;;6203374;23;20155;-75
2023/04/16 15:42:29;;;;;;;0.80;0.63;;;;;;;;;;6247877;23;20498;-74
2023/04/16 15:45:34;;;;;;;0.60;0.60;;;;;;;;;;6256087;23;20155;-74
2023/04/16 15:48:39;;;;;;;1.53;0.70;;;;;;;;;;6256066;23;20592;-74
2023/04/16 15:51:43;;;;;;;2.27;0.77;;;;;;;;;;6232407;23;20195;-73
2023/04/16 15:54:47;;;;;;;7.10;4.20;;;;;;;;;;6227251;23;20172;-75
2023/04/16 15:57:52;;;;;;;5.37;2.67;;;;;;;;;;6227130;23;20485;-73
2023/04/16 16:00:56;;;;;;;2.27;1.90;;;;;;;;;;6254580;23;20187;-74
2023/04/16 16:04:00;;;;;;;1.63;1.13;;;;;;;;;;6255912;23;20152;-73
2023/04/16 16:07:04;;;;;;;1.10;1.00;;;;;;;;;;6256594;23;20152;-72
2023/04/16 16:10:10;;;;;;;1.17;0.97;;;;;;;;;;6257733;23;20462;-74
2023/04/16 16:13:16;;;;;;;1.00;0.90;;;;;;;;;;6252525;23;20184;-73
2023/04/16 16:16:21;;;;;;;0.80;0.80;;;;;;;;;;6239466;23;20462;-73
2023/04/16 16:19:25;;;;;;;0.87;0.80;;;;;;;;;;6258040;23;20592;-74
2023/04/16 16:22:30;;;;;;;0.80;0.80;;;;;;;;;;6230636;23;20183;-74
2023/04/16 16:25:34;;;;;;;15.87;12.30;;;;;;;;;;6221986;23;20155;-74
2023/04/16 16:28:38;;;;;;;23.47;18.27;;;;;;;;;;6239237;23;20163;-74
2023/04/16 16:31:42;;;;;;;16.50;13.87;;;;;;;;;;6216603;23;20214;-74
2023/04/16 16:34:46;;;;;;;20.37;18.17;;;;;;;;;;6239925;23;20626;-74
2023/04/16 16:37:54;;;;;;;21.43;17.37;;;;;;;;;;6257574;23;20634;-73
2023/04/16 16:40:58;;;;;;;14.80;12.53;;;;;;;;;;6256089;23;20678;-74
2023/04/16 16:44:02;;;;;;;5.97;5.47;;;;;;;;;;6239099;23;20635;-73
2023/04/16 16:47:06;;;;;;;8.70;7.23;;;;;;;;;;6247483;23;20175;-74
2023/04/16 16:50:10;;;;;;;5.63;4.80;;;;;;;;;;6257333;23;20155;-74
2023/04/16 16:53:15;;;;;;;1.60;1.30;;;;;;;;;;6257140;23;20183;-73
2023/04/16 16:56:19;;;;;;;1.90;1.63;;;;;;;;;;6257618;23;20152;-74
2023/04/16 16:59:23;;;;;;;2.40;2.10;;;;;;;;;;6247657;23;20171;-74
2023/04/16 17:02:27;;;;;;;2.37;2.17;;;;;;;;;;6247205;23;20507;-74
2023/04/16 17:05:31;;;;;;;1.00;0.90;;;;;;;;;;6247649;23;20171;-74
2023/04/16 17:08:35;;;;;;;1.40;1.13;;;;;;;;;;6257149;23;20151;-73
2023/04/16 17:11:40;;;;;;;1.70;1.20;;;;;;;;;;6234094;23;20195;-73
2023/04/16 17:14:48;;;;;;;1.70;1.20;;;;;;;;;;6229076;23;20175;-74
2023/04/16 17:17:52;;;;;;;1.07;0.97;;;;;;;;;;6245646;23;20172;-74
2023/04/16 17:20:56;;;;;;;0.73;0.73;;;;;;;;;;6246346;23;20191;-73
2023/04/16 17:24:01;;;;;;;1.30;1.10;;;;;;;;;;6247088;23;20167;-74
2023/04/16 17:27:05;;;;;;;1.20;1.00;;;;;;;;;;6238979;23;20398;-73
2023/04/16 17:30:09;;;;;;;2.50;1.10;;;;;;;;;;6246763;23;20619;-74
2023/04/16 17:33:13;;;;;;;1.83;1.17;;;;;;;;;;6228031;23;20485;-73
2023/04/16 17:36:21;;;;;;;0.80;0.80;;;;;;;;;;6238695;23;20148;-73
2023/04/16 17:39:25;;;;;;;2.67;1.00;;;;;;;;;;6255791;23;20156;-73
2023/04/16 17:42:30;;;;;;;2.93;0.90;;;;;;;;;;6229986;23;20187;-73
2023/04/16 17:45:34;;;;;;;1.90;0.80;;;;;;;;;;6239043;23;20151;-73
2023/04/16 17:48:38;;;;;;;1.00;0.80;;;;;;;;;;6238893;23;20155;-74
2023/04/16 17:51:43;;;;;;;1.10;1.00;;;;;;;;;;6233112;23;20489;-73
2023/04/16 17:54:48;;;;;;;0.90;0.73;;;;;;;;;;6257503;23;20151;-74
2023/04/16 17:57:52;;;;;;;1.00;0.80;;;;;;;;;;6238718;23;20151;-74
2023/04/16 18:00:56;;;;;;;1.03;0.90;;;;;;;;;;6236936;23;20191;-74
2023/04/16 18:04:00;;;;;;;1.43;0.90;;;;;;;;;;6238596;23;20152;-74
2023/04/16 18:07:05;;;;;;;2.93;0.80;;;;;;;;;;6238421;23;20157;-74
2023/04/16 18:10:09;;;;;;;1.00;0.90;;;;;;;;;;6256536;23;20156;-74
2023/04/16 18:13:13;;;;;;;0.90;0.80;;;;;;;;;;6235251;23;20199;-74
2023/04/16 18:16:18;;;;;;;2.30;1.10;;;;;;;;;;6238368;23;20156;-74
2023/04/16 18:19:22;;;;;;;0.80;0.80;;;;;;;;;;6256730;23;20152;-74
2023/04/16 18:22:27;;;;;;;1.03;0.80;;;;;;;;;;6230186;23;20183;-74
2023/04/16 18:25:31;;;;;;;0.90;0.83;;;;;;;;;;6246150;23;20167;-74
2023/04/16 18:28:35;;;;;;;0.80;0.80;;;;;;;;;;6227679;23;20172;-74